createdAt,value
2018-11-23T00:02:22.259Z,15.37
2018-11-23T00:04:49.991Z,14.60
2018-11-23T00:07:17.734Z,13.40
2018-11-23T00:09:45.511Z,14.57
2018-11-23T00:12:13.233Z,15.07
2018-11-23T00:14:40.931Z,14.57
2018-11-23T00:17:08.642Z,14.20
2018-11-23T00:19:36.424Z,15.43
2018-11-23T00:22:04.320Z,14.83
2018-11-23T00:24:32.066Z,14.77
2018-11-23T00:27:00.058Z,13.33
2018-11-23T00:29:27.802Z,13.30
2018-11-23T00:31:55.528Z,13.17
2018-11-23T00:34:23.276Z,12.77
2018-11-23T00:36:51.399Z,13.47
2018-11-23T00:39:19.165Z,13.50
2018-11-23T00:41:46.918Z,13.63
2018-11-23T00:44:14.651Z,14.33
2018-11-23T00:46:42.391Z,13.43
2018-11-23T00:49:10.112Z,13.60
2018-11-23T00:51:37.904Z,13.73
2018-11-23T00:54:05.667Z,13.30
2018-11-23T00:56:33.403Z,14.20
2018-11-23T00:59:01.158Z,14.40
2018-11-23T01:01:33.400Z,14.33
2018-11-23T01:04:01.113Z,14.70
2018-11-23T01:06:28.847Z,15.83
2018-11-23T01:08:56.599Z,13.57
2018-11-23T01:11:24.311Z,14.90
2018-11-23T01:13:52.036Z,14.27
2018-11-23T01:16:19.766Z,15.67
2018-11-23T01:18:47.484Z,15.00
2018-11-23T01:21:15.219Z,14.67
2018-11-23T01:23:42.956Z,14.57
2018-11-23T01:26:10.799Z,14.23
2018-11-23T01:28:38.531Z,14.00
2018-11-23T01:31:06.282Z,14.60
2018-11-23T01:33:34.007Z,14.93
2018-11-23T01:36:01.814Z,15.10
2018-11-23T01:38:29.548Z,16.50
2018-11-23T01:40:57.291Z,15.27
2018-11-23T01:43:25.023Z,15.57
2018-11-23T01:45:52.744Z,17.10
2018-11-23T01:48:20.492Z,17.50
2018-11-23T01:50:48.230Z,17.10
2018-11-23T01:53:15.955Z,17.03
2018-11-23T01:55:43.663Z,17.00
2018-11-23T01:58:11.391Z,18.90
2018-11-23T02:00:39.127Z,18.17
2018-11-23T02:03:06.865Z,18.93
2018-11-23T02:05:34.577Z,19.80
2018-11-23T02:08:02.291Z,18.17
2018-11-23T02:10:30.318Z,19.90
2018-11-23T02:12:58.052Z,19.77
2018-11-23T02:15:25.814Z,17.80
2018-11-23T02:17:53.545Z,18.83
2018-11-23T02:20:21.960Z,18.10
2018-11-23T02:22:49.699Z,19.13
2018-11-23T02:25:17.431Z,18.93
2018-11-23T02:27:45.231Z,20.03
2018-11-23T02:30:15.965Z,20.23
2018-11-23T02:32:44.072Z,20.90
2018-11-23T02:35:12.312Z,20.47
2018-11-23T02:37:40.734Z,20.70
2018-11-23T02:40:09.604Z,20.17
2018-11-23T02:42:37.572Z,19.70
2018-11-23T02:45:07.392Z,19.27
2018-11-23T02:47:35.138Z,18.73
2018-11-23T02:50:02.873Z,18.47
2018-11-23T02:52:30.611Z,19.33
2018-11-23T02:54:58.320Z,18.73
2018-11-23T02:57:26.044Z,18.77
2018-11-23T02:59:53.835Z,18.43
2018-11-23T03:02:21.563Z,17.53
2018-11-23T03:04:49.336Z,19.30
2018-11-23T03:07:17.080Z,17.93
2018-11-23T03:09:44.815Z,18.17
2018-11-23T03:12:12.557Z,19.10
2018-11-23T03:14:40.293Z,20.00
2018-11-23T03:17:07.999Z,19.27
2018-11-23T03:19:35.747Z,20.07
2018-11-23T03:22:03.626Z,18.80
2018-11-23T03:24:31.359Z,19.13
2018-11-23T03:26:59.092Z,19.23
2018-11-23T03:29:26.845Z,20.70
2018-11-23T03:31:54.568Z,19.83
2018-11-23T03:34:22.287Z,19.83
2018-11-23T03:36:50.009Z,21.63
2018-11-23T03:39:17.736Z,20.13
2018-11-23T03:41:45.512Z,19.97
2018-11-23T03:44:13.229Z,18.47
2018-11-23T03:46:40.964Z,18.40
2018-11-23T03:49:08.704Z,18.83
2018-11-23T03:51:36.431Z,17.77
2018-11-23T03:54:04.250Z,18.97
2018-11-23T03:56:32.007Z,20.53
2018-11-23T03:58:59.747Z,18.27
2018-11-23T04:01:27.481Z,19.47
2018-11-23T04:03:55.215Z,18.97
2018-11-23T04:06:22.959Z,21.13
2018-11-23T04:08:51.212Z,22.53
2018-11-23T04:11:18.967Z,23.30
2018-11-23T04:13:46.680Z,21.67
2018-11-23T04:16:14.433Z,17.70
2018-11-23T04:18:42.160Z,17.20
2018-11-23T04:21:09.896Z,13.10
2018-11-23T04:23:37.628Z,13.70
2018-11-23T04:26:05.374Z,13.23
2018-11-23T04:28:33.131Z,13.20
2018-11-23T04:31:00.860Z,14.63
2018-11-23T04:33:28.584Z,12.73
2018-11-23T04:35:56.811Z,14.80
2018-11-23T04:38:24.543Z,14.83
2018-11-23T04:40:52.284Z,15.07
2018-11-23T04:43:20.079Z,15.27
2018-11-23T04:45:47.787Z,16.10
2018-11-23T04:48:15.491Z,15.30
2018-11-23T04:50:43.223Z,14.03
2018-11-23T04:53:10.967Z,13.47
2018-11-23T04:55:38.709Z,14.17
2018-11-23T04:58:06.461Z,13.10
2018-11-23T05:00:34.207Z,13.10
2018-11-23T05:03:01.927Z,12.03
2018-11-23T05:05:29.651Z,12.50
2018-11-23T05:07:57.383Z,13.40
2018-11-23T05:10:25.159Z,13.07
2018-11-23T05:12:52.901Z,14.53
2018-11-23T05:15:20.656Z,12.57
2018-11-23T05:17:48.441Z,13.70
2018-11-23T05:20:16.575Z,13.97
2018-11-23T05:22:44.664Z,14.17
2018-11-23T05:25:13.843Z,14.40
2018-11-23T05:27:41.674Z,16.10
2018-11-23T05:30:12.295Z,15.13
2018-11-23T05:32:40.156Z,14.23
2018-11-23T05:35:08.719Z,15.97
2018-11-23T05:37:36.551Z,15.80
2018-11-23T05:40:06.019Z,14.70
2018-11-23T05:42:33.737Z,13.83
2018-11-23T05:45:01.507Z,14.30
2018-11-23T05:47:29.305Z,15.50
2018-11-23T05:49:57.027Z,13.37
2018-11-23T05:52:24.763Z,12.57
2018-11-23T05:54:52.484Z,13.47
2018-11-23T05:57:20.241Z,13.47
2018-11-23T05:59:48.011Z,12.77
2018-11-23T06:02:15.731Z,13.73
2018-11-23T06:04:43.484Z,14.00
2018-11-23T06:07:11.237Z,13.27
2018-11-23T06:09:38.999Z,13.93
2018-11-23T06:12:06.767Z,15.00
2018-11-23T06:14:34.491Z,14.40
2018-11-23T06:17:02.295Z,14.83
2018-11-23T06:19:30.051Z,14.20
2018-11-23T06:21:57.780Z,16.40
2018-11-23T06:24:31.952Z,16.67
2018-11-23T06:26:53.350Z,18.10
2018-11-23T06:29:21.103Z,18.73
2018-11-23T06:31:49.129Z,16.50
2018-11-23T06:34:16.904Z,17.17
2018-11-23T06:36:44.636Z,14.97
2018-11-23T06:39:12.375Z,15.60
2018-11-23T06:41:40.111Z,18.37
2018-11-23T06:44:08.084Z,19.77
2018-11-23T06:46:35.851Z,18.63
2018-11-23T06:49:03.646Z,17.20
2018-11-23T06:51:31.408Z,17.43
2018-11-23T06:53:59.144Z,15.97
2018-11-23T06:56:26.927Z,15.80
2018-11-23T06:58:54.652Z,15.93
2018-11-23T07:01:22.391Z,16.20
2018-11-23T07:03:50.345Z,17.53
2018-11-23T07:06:18.139Z,17.57
2018-11-23T07:08:52.207Z,16.87
2018-11-23T07:11:13.672Z,16.33
2018-11-23T07:13:41.491Z,16.43
2018-11-23T07:16:09.274Z,19.47
2018-11-23T07:18:37.007Z,19.33
2018-11-23T07:21:05.148Z,18.70
2018-11-23T07:23:32.862Z,18.93
2018-11-23T07:26:00.598Z,17.00
2018-11-23T07:28:28.337Z,16.77
2018-11-23T07:31:02.100Z,16.17
2018-11-23T07:33:23.940Z,15.70
2018-11-23T07:35:51.739Z,17.07
2018-11-23T07:38:19.463Z,15.53
2018-11-23T07:40:58.267Z,18.77
2018-11-23T07:43:26.017Z,20.43
2018-11-23T07:45:53.847Z,20.27
2018-11-23T07:48:21.626Z,17.90
2018-11-23T07:50:49.352Z,15.23
2018-11-23T07:53:17.109Z,16.67
2018-11-23T07:55:44.935Z,15.70
2018-11-23T07:58:12.659Z,15.10
2018-11-23T08:00:40.443Z,15.40
2018-11-23T08:03:08.238Z,15.40
2018-11-23T08:05:35.976Z,14.77
2018-11-23T08:08:03.881Z,15.30
2018-11-23T08:10:30.981Z,13.83
2018-11-23T08:12:58.731Z,15.13
2018-11-23T08:15:27.414Z,15.03
2018-11-23T08:17:55.190Z,14.00
2018-11-23T08:20:23.852Z,13.67
2018-11-23T08:22:51.681Z,15.63
2018-11-23T08:25:20.520Z,15.07
2018-11-23T08:27:49.229Z,14.80
2018-11-23T08:30:20.438Z,14.80
2018-11-23T08:32:48.207Z,12.50
2018-11-23T08:35:16.505Z,12.60
2018-11-23T08:37:44.562Z,14.67
2018-11-23T08:40:15.017Z,12.30
2018-11-23T08:42:43.311Z,12.13
2018-11-23T08:45:13.630Z,13.13
2018-11-23T08:47:41.451Z,10.43
2018-11-23T08:50:11.826Z,11.30
2018-11-23T08:52:39.563Z,13.37
2018-11-23T08:55:08.126Z,11.83
2018-11-23T08:57:35.881Z,12.43
2018-11-23T09:00:05.844Z,12.80
2018-11-23T09:02:33.590Z,11.70
2018-11-23T09:05:01.342Z,11.77
2018-11-23T09:07:29.101Z,11.20
2018-11-23T09:09:56.842Z,12.80
2018-11-23T09:12:24.569Z,10.00
2018-11-23T09:14:52.392Z,10.60
2018-11-23T09:17:20.171Z,10.97
2018-11-23T09:19:47.958Z,12.80
2018-11-23T09:22:15.712Z,13.73
2018-11-23T09:24:43.499Z,15.00
2018-11-23T09:27:11.222Z,10.47
2018-11-23T09:29:38.972Z,11.83
2018-11-23T09:32:06.743Z,11.37
2018-11-23T09:34:34.483Z,11.33
2018-11-23T09:37:02.267Z,12.07
2018-11-23T09:39:30.049Z,12.43
2018-11-23T09:41:57.820Z,10.80
2018-11-23T09:44:25.627Z,9.40
2018-11-23T09:46:53.339Z,10.17
2018-11-23T09:49:21.160Z,12.83
2018-11-23T09:51:48.915Z,9.67
2018-11-23T09:54:16.632Z,10.50
2018-11-23T09:56:44.372Z,10.80
2018-11-23T09:59:12.092Z,12.30
2018-11-23T10:01:39.841Z,10.77
2018-11-23T10:04:07.624Z,12.50
2018-11-23T10:06:35.359Z,11.40
2018-11-23T10:09:03.804Z,10.53
2018-11-23T10:11:31.555Z,12.17
2018-11-23T10:13:59.300Z,12.43
2018-11-23T10:16:27.065Z,12.53
2018-11-23T10:18:54.794Z,12.50
2018-11-23T10:21:22.530Z,15.47
2018-11-23T10:23:50.286Z,15.17
2018-11-23T10:26:18.130Z,13.03
2018-11-23T10:28:45.875Z,15.47
2018-11-23T10:31:13.632Z,17.63
2018-11-23T10:33:41.351Z,34.90
2018-11-23T10:36:09.119Z,41.53
2018-11-23T10:38:36.875Z,52.30
2018-11-23T10:41:04.697Z,55.57
2018-11-23T10:43:32.434Z,49.67
2018-11-23T10:46:00.223Z,49.57
2018-11-23T10:48:27.994Z,42.00
2018-11-23T10:50:55.778Z,33.70
2018-11-23T10:53:23.559Z,32.03
2018-11-23T10:55:51.342Z,26.40
2018-11-23T10:58:19.114Z,31.03
2018-11-23T11:00:48.791Z,31.00
2018-11-23T11:06:26.776Z,27.47
2018-11-23T11:08:54.499Z,27.47
2018-11-23T11:11:22.316Z,30.57
2018-11-23T11:13:50.119Z,25.03
2018-11-23T11:16:17.868Z,23.93
2018-11-23T11:18:45.608Z,24.83
2018-11-23T11:21:13.413Z,24.83
2018-11-23T11:23:41.171Z,19.20
2018-11-23T11:26:08.944Z,19.43
2018-11-23T11:28:36.666Z,20.80
2018-11-23T11:31:04.732Z,18.33
2018-11-23T11:33:32.459Z,19.87
2018-11-23T11:36:00.228Z,12.73
2018-11-23T11:38:27.978Z,14.47
2018-11-23T11:40:55.720Z,15.90
2018-11-23T11:43:23.500Z,14.07
2018-11-23T11:45:51.296Z,15.03
2018-11-23T11:48:19.064Z,16.03
2018-11-23T11:50:46.794Z,14.37
2018-11-23T11:53:14.527Z,16.17
2018-11-23T11:55:42.270Z,16.90
2018-11-23T11:58:09.999Z,14.20
2018-11-23T12:00:37.767Z,12.23
2018-11-23T12:03:06.127Z,12.70
2018-11-23T12:05:33.943Z,12.13
2018-11-23T12:08:01.677Z,10.00
2018-11-23T12:10:29.544Z,9.73
2018-11-23T12:12:57.277Z,11.33
2018-11-23T12:15:25.008Z,10.07
2018-11-23T12:17:52.739Z,12.83
2018-11-23T12:20:22.035Z,12.20
2018-11-23T12:22:50.192Z,11.07
2018-11-23T12:25:18.280Z,10.87
2018-11-23T12:27:46.004Z,11.67
2018-11-23T12:30:15.845Z,10.57
2018-11-23T12:32:44.524Z,10.10
2018-11-23T12:35:13.323Z,9.93
2018-11-23T12:37:41.163Z,11.53
2018-11-23T12:40:11.022Z,10.87
2018-11-23T12:42:38.815Z,9.53
2018-11-23T12:45:08.219Z,10.27
2018-11-23T12:47:35.961Z,11.30
2018-11-23T12:50:04.386Z,13.97
2018-11-23T12:52:32.121Z,13.23
2018-11-23T12:54:59.850Z,14.80
2018-11-23T12:57:27.579Z,13.33
2018-11-23T12:59:55.339Z,12.37
2018-11-23T13:02:23.088Z,12.47
2018-11-23T13:04:50.856Z,14.10
2018-11-23T13:07:18.583Z,10.97
2018-11-23T13:09:46.327Z,11.80
2018-11-23T13:12:14.058Z,11.43
2018-11-23T13:14:41.787Z,11.57
2018-11-23T13:17:09.515Z,11.47
2018-11-23T13:19:37.289Z,10.00
2018-11-23T13:22:05.067Z,11.20
2018-11-23T13:24:32.812Z,8.57
2018-11-23T13:27:00.575Z,9.63
2018-11-23T13:29:28.320Z,10.20
2018-11-23T13:31:56.108Z,11.10
2018-11-23T13:34:23.871Z,11.37
2018-11-23T13:36:51.612Z,9.77
2018-11-23T13:39:19.364Z,9.07
2018-11-23T13:41:47.121Z,9.67
2018-11-23T13:44:14.879Z,10.70
2018-11-23T13:46:42.612Z,8.80
2018-11-23T13:49:10.327Z,9.30
2018-11-23T13:51:38.041Z,8.07
2018-11-23T13:54:05.928Z,8.93
2018-11-23T13:56:33.699Z,8.80
2018-11-23T13:59:01.848Z,11.97
2018-11-23T14:01:29.594Z,12.03
2018-11-23T14:03:57.316Z,14.77
2018-11-23T14:06:25.085Z,14.43
2018-11-23T14:08:52.819Z,14.83
2018-11-23T14:11:20.551Z,15.23
2018-11-23T14:13:48.288Z,13.90
2018-11-23T14:16:16.036Z,11.63
2018-11-23T14:18:43.827Z,11.20
2018-11-23T14:21:11.574Z,10.33
2018-11-23T14:23:39.304Z,10.73
2018-11-23T14:26:07.175Z,12.27
2018-11-23T14:28:34.906Z,14.47
2018-11-23T14:31:02.659Z,17.03
2018-11-23T14:33:30.429Z,25.67
2018-11-23T14:35:58.177Z,26.00
2018-11-23T14:38:25.905Z,26.57
2018-11-23T14:40:53.643Z,38.97
2018-11-23T14:43:21.360Z,39.40
2018-11-23T14:45:49.107Z,33.07
2018-11-23T14:48:16.831Z,25.83
2018-11-23T14:50:48.164Z,25.87
2018-11-23T14:53:15.927Z,26.13
2018-11-23T14:55:43.665Z,23.33
2018-11-23T14:58:11.405Z,29.97
2018-11-23T15:00:39.593Z,37.57
2018-11-23T15:03:07.737Z,38.23
2018-11-23T15:05:35.988Z,29.67
2018-11-23T17:58:28.951Z,76.10
2018-11-23T18:00:56.675Z,73.63
2018-11-23T18:03:24.408Z,73.77
2018-11-23T18:05:52.176Z,71.00
2018-11-23T18:08:19.918Z,73.30
2018-11-23T18:10:47.716Z,62.17
2018-11-23T18:13:15.444Z,44.50
2018-11-23T18:15:44.136Z,39.73
2018-11-23T18:18:11.920Z,38.30
2018-11-23T18:20:39.635Z,39.73
2018-11-23T18:23:07.412Z,41.23
2018-11-23T18:25:37.781Z,42.40
2018-11-23T18:28:05.656Z,44.30
2018-11-23T18:30:33.900Z,48.67
2018-11-23T18:33:03.069Z,52.07
2018-11-23T18:35:30.840Z,53.97
2018-11-23T18:37:58.580Z,53.97
2018-11-23T18:40:26.315Z,52.67
2018-11-23T18:42:54.049Z,49.23
2018-11-23T18:45:21.815Z,52.67
2018-11-23T18:47:49.527Z,47.37
2018-11-23T18:50:17.739Z,50.13
2018-11-23T18:52:45.483Z,48.60
2018-11-23T18:55:18.174Z,50.03
2018-11-23T18:57:41.711Z,49.80
2018-11-23T19:00:14.156Z,51.67
2018-11-23T19:02:42.707Z,53.57
2018-11-23T19:05:17.023Z,53.87
2018-11-23T19:07:44.764Z,50.00
2018-11-23T19:10:13.363Z,39.93
2018-11-23T19:12:41.106Z,40.03
2018-11-23T19:15:12.056Z,42.70
2018-11-23T19:17:39.790Z,33.67
2018-11-23T19:20:10.543Z,34.43
2018-11-23T19:22:38.259Z,33.60
2018-11-23T19:25:06.408Z,29.40
2018-11-23T19:27:34.480Z,30.43
2018-11-23T19:30:02.249Z,29.63
2018-11-23T19:32:29.988Z,25.90
2018-11-23T19:34:57.716Z,22.77
2018-11-23T19:37:32.023Z,20.20
2018-11-23T19:39:59.779Z,23.20
2018-11-23T19:42:27.543Z,23.80
2018-11-23T19:44:55.273Z,24.00
2018-11-23T19:47:22.991Z,23.33
2018-11-23T19:49:50.726Z,26.00
2018-11-23T19:52:18.459Z,29.57
2018-11-23T19:54:46.190Z,28.37
2018-11-23T19:57:13.926Z,28.63
2018-11-23T19:59:41.644Z,29.97
2018-11-23T20:02:10.274Z,31.73
2018-11-23T20:04:38.034Z,34.67
2018-11-23T20:07:05.841Z,34.10
2018-11-23T20:09:35.986Z,35.97
2018-11-23T20:12:01.393Z,36.67
2018-11-23T20:14:29.148Z,34.57
2018-11-23T20:16:56.872Z,33.17
2018-11-23T20:19:24.596Z,32.23
2018-11-23T20:21:52.324Z,22.63
2018-11-23T20:24:20.055Z,22.07
2018-11-23T20:26:47.783Z,21.07
2018-11-23T20:29:15.500Z,19.13
2018-11-23T20:31:43.231Z,14.90
2018-11-23T20:34:10.973Z,15.37
2018-11-23T20:36:38.704Z,14.13
2018-11-23T20:39:08.527Z,13.77
2018-11-23T20:41:36.612Z,11.77
2018-11-23T20:44:04.975Z,12.10
2018-11-23T20:46:32.709Z,14.00
2018-11-23T20:49:00.448Z,12.17
2018-11-23T20:51:28.204Z,11.17
2018-11-23T20:53:56.014Z,11.63
2018-11-23T20:56:23.787Z,12.23
2018-11-23T20:58:51.508Z,12.40
2018-11-23T21:01:19.228Z,11.20
2018-11-23T21:03:46.952Z,11.60
2018-11-23T21:06:14.675Z,12.80
2018-11-23T21:08:42.417Z,12.60
2018-11-23T21:11:10.147Z,15.93
2018-11-23T21:13:37.875Z,17.27
2018-11-23T21:16:05.739Z,13.47
2018-11-23T21:18:33.473Z,12.77
2018-11-23T21:21:01.200Z,11.50
2018-11-23T21:23:28.975Z,13.07
2018-11-23T21:25:56.739Z,12.20
2018-11-23T21:28:24.460Z,12.47
2018-11-23T21:30:52.184Z,11.83
2018-11-23T21:33:19.889Z,11.30
2018-11-23T21:35:47.615Z,12.50
2018-11-23T21:38:15.348Z,11.40
2018-11-23T21:40:44.434Z,12.27
2018-11-23T21:43:10.886Z,11.30
2018-11-23T21:45:38.643Z,12.00
2018-11-23T21:48:06.399Z,12.00
2018-11-23T21:50:34.141Z,13.47
2018-11-23T21:53:01.866Z,15.10
2018-11-23T21:55:29.604Z,17.60
2018-11-23T21:57:57.404Z,18.30
2018-11-23T22:00:25.206Z,17.70
2018-11-23T22:02:52.938Z,17.30
2018-11-23T22:05:20.664Z,16.63
2018-11-23T22:07:48.391Z,17.63
2018-11-23T22:10:17.967Z,17.07
2018-11-23T22:12:45.722Z,18.00
2018-11-23T22:15:16.259Z,19.13
2018-11-23T22:17:43.964Z,17.87
2018-11-23T22:20:12.874Z,18.23
2018-11-23T22:22:40.665Z,20.03
2018-11-23T22:25:09.742Z,18.70
2018-11-23T22:27:37.566Z,19.00
2018-11-23T22:30:21.452Z,17.93
2018-11-23T22:32:49.179Z,18.17
2018-11-23T22:35:16.973Z,17.67
2018-11-23T22:37:44.692Z,14.63
2018-11-23T22:40:13.605Z,14.50
2018-11-23T22:42:42.677Z,15.03
2018-11-23T22:45:11.637Z,14.43
2018-11-23T22:47:39.383Z,14.00
2018-11-23T22:50:09.981Z,14.67
2018-11-23T22:52:37.741Z,14.27
2018-11-23T22:55:07.175Z,14.17
2018-11-23T22:57:34.932Z,14.63
2018-11-23T23:00:02.764Z,15.03
2018-11-23T23:02:30.515Z,14.93
2018-11-23T23:04:58.232Z,15.37
2018-11-23T23:07:25.972Z,16.03
2018-11-23T23:09:53.708Z,17.63
2018-11-23T23:12:21.422Z,17.10
2018-11-23T23:14:49.180Z,16.47
2018-11-23T23:17:16.919Z,16.13
2018-11-23T23:19:44.627Z,16.57
2018-11-23T23:22:12.351Z,16.03
2018-11-23T23:24:40.084Z,15.87
2018-11-23T23:27:07.835Z,15.20
2018-11-23T23:29:35.555Z,16.43
2018-11-23T23:32:03.407Z,15.93
2018-11-23T23:34:31.161Z,16.20
2018-11-23T23:36:58.903Z,14.43
2018-11-23T23:39:26.615Z,14.73
2018-11-23T23:41:54.347Z,15.40
2018-11-23T23:44:22.066Z,14.73
2018-11-23T23:46:49.808Z,14.87
2018-11-23T23:49:17.567Z,16.30
2018-11-23T23:51:45.311Z,16.10
2018-11-23T23:54:13.044Z,16.00
2018-11-23T23:56:40.760Z,17.40
2018-11-23T23:59:08.500Z,18.40
